createdAt,value
2017-11-17T00:01:04.726Z,84.00
2017-11-17T00:03:33.099Z,67.00
2017-11-17T00:06:01.438Z,75.63
2017-11-17T00:08:29.752Z,74.03
2017-11-17T00:10:58.087Z,81.43
2017-11-17T00:13:26.407Z,83.43
2017-11-17T00:15:54.756Z,74.73
2017-11-17T00:18:23.158Z,73.03
2017-11-17T00:20:51.498Z,62.20
2017-11-17T00:23:20.990Z,71.90
2017-11-17T00:25:49.300Z,87.53
2017-11-17T00:28:17.651Z,65.73
2017-11-17T00:30:45.977Z,61.30
2017-11-17T00:33:14.432Z,81.30
2017-11-17T00:35:42.744Z,68.00
2017-11-17T00:38:11.058Z,64.13
2017-11-17T00:40:39.555Z,66.40
2017-11-17T00:43:07.901Z,55.47
2017-11-17T00:45:36.227Z,58.73
2017-11-17T00:48:09.140Z,59.40
2017-11-17T00:50:40.455Z,55.30
2017-11-17T00:53:11.798Z,69.60
2017-11-17T00:55:40.332Z,67.33
2017-11-17T00:58:08.690Z,61.27
2017-11-17T01:00:37.061Z,72.63
2017-11-17T01:03:05.387Z,56.37
2017-11-17T01:05:33.714Z,64.13
2017-11-17T01:08:02.045Z,67.20
2017-11-17T01:10:30.552Z,79.07
2017-11-17T01:12:58.861Z,87.20
2017-11-17T01:15:27.169Z,64.57
2017-11-17T01:17:55.514Z,83.03
2017-11-17T01:20:23.853Z,77.00
2017-11-17T01:22:52.175Z,90.60
2017-11-17T01:25:20.475Z,80.30
2017-11-17T01:27:48.828Z,134.37
2017-11-17T01:30:17.151Z,76.70
2017-11-17T01:32:45.492Z,81.30
2017-11-17T01:35:13.797Z,88.30
2017-11-17T01:37:42.125Z,74.83
2017-11-17T01:40:10.481Z,91.30
2017-11-17T01:45:13.469Z,77.57
2017-11-17T01:47:41.760Z,80.73
2017-11-17T01:50:10.144Z,92.57
2017-11-17T01:52:38.466Z,81.10
2017-11-17T01:55:06.802Z,80.90
2017-11-17T01:57:35.129Z,76.70
2017-11-17T02:00:03.495Z,87.23
2017-11-17T02:02:31.835Z,81.40
2017-11-17T02:05:00.174Z,78.63
2017-11-17T02:07:28.500Z,75.47
2017-11-17T02:09:56.821Z,82.93
2017-11-17T02:12:25.175Z,86.33
2017-11-17T02:14:53.477Z,70.17
2017-11-17T02:17:21.830Z,67.20
2017-11-17T02:19:50.157Z,78.77
2017-11-17T02:22:18.496Z,64.83
2017-11-17T02:24:47.042Z,57.90
2017-11-17T02:27:15.358Z,47.53
2017-11-17T02:29:43.709Z,59.53
2017-11-17T02:32:12.041Z,51.57
2017-11-17T02:34:40.362Z,68.40
2017-11-17T02:37:08.740Z,62.20
2017-11-17T02:39:37.074Z,56.77
2017-11-17T02:42:05.416Z,51.73
2017-11-17T02:44:34.447Z,48.03
2017-11-17T02:47:02.831Z,50.13
2017-11-17T02:49:32.868Z,44.90
2017-11-17T02:52:02.862Z,34.70
2017-11-17T02:54:32.360Z,44.40
2017-11-17T02:57:00.729Z,38.63
2017-11-17T02:59:29.037Z,43.47
2017-11-17T03:01:57.368Z,36.70
2017-11-17T03:04:25.677Z,38.33
2017-11-17T03:06:54.058Z,41.97
2017-11-17T03:09:22.378Z,40.80
2017-11-17T03:11:50.729Z,39.97
2017-11-17T03:14:19.042Z,38.27
2017-11-17T03:16:47.357Z,62.27
2017-11-17T03:19:15.742Z,50.10
2017-11-17T03:21:44.042Z,48.57
2017-11-17T03:24:12.351Z,48.47
2017-11-17T03:26:40.696Z,40.50
2017-11-17T03:29:09.017Z,44.27
2017-11-17T03:31:37.451Z,40.60
2017-11-17T03:34:05.763Z,33.87
2017-11-17T03:36:34.089Z,34.10
2017-11-17T03:39:02.444Z,33.57
2017-11-17T03:41:30.761Z,37.77
2017-11-17T03:43:59.164Z,34.40
2017-11-17T03:46:27.478Z,42.63
2017-11-17T03:48:55.780Z,35.90
2017-11-17T03:51:24.152Z,44.77
2017-11-17T03:53:52.472Z,40.97
2017-11-17T03:56:20.817Z,41.13
2017-11-17T03:58:49.156Z,45.83
2017-11-17T04:01:17.480Z,46.23
2017-11-17T04:03:45.804Z,42.47
2017-11-17T04:06:14.109Z,49.37
2017-11-17T04:08:42.505Z,54.27
2017-11-17T04:11:10.814Z,44.93
2017-11-17T04:13:39.167Z,40.00
2017-11-17T04:16:07.497Z,44.40
2017-11-17T04:18:35.828Z,48.90
2017-11-17T04:21:05.124Z,51.73
2017-11-17T04:23:33.453Z,46.07
2017-11-17T04:26:01.917Z,66.07
2017-11-17T04:28:30.271Z,68.37
2017-11-17T04:30:58.610Z,65.87
2017-11-17T04:33:26.947Z,67.23
2017-11-17T04:35:55.280Z,78.10
2017-11-17T04:38:23.610Z,77.80
2017-11-17T04:40:51.934Z,78.50
2017-11-17T04:43:20.254Z,64.97
2017-11-17T04:45:48.568Z,68.87
2017-11-17T04:48:16.905Z,57.33
2017-11-17T04:50:45.221Z,68.93
2017-11-17T04:53:13.575Z,86.37
2017-11-17T04:55:41.881Z,66.03
2017-11-17T04:58:10.231Z,82.00
2017-11-17T05:00:38.580Z,67.93
2017-11-17T05:03:06.918Z,68.43
2017-11-17T05:05:35.237Z,71.17
2017-11-17T05:08:03.560Z,68.50
2017-11-17T05:10:31.945Z,83.63
2017-11-17T05:13:00.418Z,66.53
2017-11-17T05:15:28.749Z,69.07
2017-11-17T05:17:57.989Z,74.73
2017-11-17T05:20:26.339Z,83.43
2017-11-17T05:22:55.303Z,74.43
2017-11-17T05:25:23.612Z,88.20
2017-11-17T05:27:51.928Z,69.97
2017-11-17T05:30:20.259Z,79.13
2017-11-17T05:32:48.637Z,68.67
2017-11-17T05:35:16.947Z,75.00
2017-11-17T05:37:45.267Z,69.80
2017-11-17T05:40:14.245Z,82.73
2017-11-17T05:42:42.641Z,98.47
2017-11-17T05:45:11.074Z,85.93
2017-11-17T05:47:39.408Z,82.30
2017-11-17T05:50:07.753Z,81.97
2017-11-17T05:52:36.914Z,83.37
2017-11-17T05:55:05.231Z,85.33
2017-11-17T05:57:33.578Z,82.10
2017-11-17T06:00:01.976Z,77.27
2017-11-17T06:02:30.287Z,74.80
2017-11-17T06:04:58.986Z,87.63
2017-11-17T06:07:27.310Z,87.47
2017-11-17T06:09:55.633Z,81.57
2017-11-17T06:12:23.996Z,88.13
2017-11-17T06:14:52.304Z,94.17
2017-11-17T06:17:20.641Z,89.90
2017-11-17T06:19:48.981Z,100.53
2017-11-17T06:22:17.314Z,80.33
2017-11-17T06:24:45.782Z,86.63
2017-11-17T06:27:14.166Z,82.50
2017-11-17T06:29:42.885Z,94.63
2017-11-17T06:32:11.249Z,87.93
2017-11-17T06:34:39.582Z,84.20
2017-11-17T06:37:08.946Z,77.27
2017-11-17T06:39:38.166Z,82.00
2017-11-17T06:42:06.610Z,82.03
2017-11-17T06:44:35.115Z,95.13
2017-11-17T06:47:03.454Z,95.70
2017-11-17T06:49:31.757Z,88.27
2017-11-17T06:52:00.071Z,94.73
2017-11-17T06:54:28.445Z,73.43
2017-11-17T06:56:56.787Z,82.63
2017-11-17T06:59:25.184Z,80.80
2017-11-17T07:01:53.525Z,95.17
2017-11-17T07:04:21.854Z,86.30
2017-11-17T07:06:50.172Z,85.23
2017-11-17T07:09:18.606Z,86.50
2017-11-17T07:11:47.016Z,84.07
2017-11-17T07:14:15.347Z,84.60
2017-11-17T07:16:44.158Z,87.97
2017-11-17T07:19:12.641Z,93.00
2017-11-17T07:21:41.226Z,90.33
2017-11-17T07:24:09.722Z,94.03
2017-11-17T07:26:38.063Z,80.60
2017-11-17T07:29:06.412Z,97.30
2017-11-17T07:31:34.873Z,98.73
2017-11-17T07:34:04.202Z,77.40
2017-11-17T07:36:32.634Z,87.80
2017-11-17T07:39:00.993Z,79.93
2017-11-17T07:41:29.312Z,87.20
2017-11-17T07:43:57.716Z,82.43
2017-11-17T07:46:26.289Z,86.70
2017-11-17T07:48:54.671Z,80.67
2017-11-17T07:51:22.987Z,90.00
2017-11-17T07:53:51.301Z,99.43
2017-11-17T07:56:19.693Z,94.77
2017-11-17T07:58:48.037Z,91.37
2017-11-17T08:01:16.453Z,90.70
2017-11-17T08:03:44.785Z,85.67
2017-11-17T08:06:13.162Z,85.53
2017-11-17T08:08:41.692Z,95.77
2017-11-17T08:11:10.018Z,94.30
2017-11-17T08:13:38.378Z,116.80
2017-11-17T08:16:06.745Z,86.03
2017-11-17T08:18:48.518Z,99.57
2017-11-17T08:21:16.852Z,89.83
2017-11-17T08:23:45.208Z,99.20
2017-11-17T08:26:13.518Z,79.63
2017-11-17T08:28:41.865Z,82.13
2017-11-17T08:31:10.281Z,90.13
2017-11-17T08:33:38.668Z,84.43
2017-11-17T08:36:07.028Z,103.60
2017-11-17T08:38:35.371Z,98.97
2017-11-17T08:41:03.756Z,93.07
2017-11-17T08:43:32.152Z,93.57
2017-11-17T08:46:00.537Z,98.57
2017-11-17T08:48:28.865Z,94.67
2017-11-17T08:50:57.221Z,79.97
2017-11-17T08:53:25.523Z,96.13
2017-11-17T08:55:53.880Z,99.67
2017-11-17T08:58:22.257Z,102.83
2017-11-17T09:00:50.582Z,98.27
2017-11-17T09:03:18.984Z,92.77
2017-11-17T09:05:47.317Z,99.70
2017-11-17T09:08:15.649Z,91.60
2017-11-17T09:10:44.059Z,91.50
2017-11-17T09:13:12.375Z,87.03
2017-11-17T09:15:41.561Z,74.70
2017-11-17T09:18:09.896Z,75.00
2017-11-17T09:20:38.205Z,82.10
2017-11-17T09:23:06.579Z,87.80
2017-11-17T09:25:34.893Z,93.63
2017-11-17T09:28:03.267Z,101.40
2017-11-17T09:30:31.646Z,100.03
2017-11-17T09:33:00.118Z,85.13
2017-11-17T09:35:28.455Z,85.47
2017-11-17T09:37:57.632Z,91.70
2017-11-17T09:40:25.984Z,96.00
2017-11-17T09:42:54.462Z,83.67
2017-11-17T09:45:22.873Z,93.07
2017-11-17T09:47:51.291Z,102.43
2017-11-17T09:50:19.627Z,90.23
2017-11-17T09:52:47.934Z,88.60
2017-11-17T09:55:16.299Z,85.77
2017-11-17T09:57:44.644Z,88.63
2017-11-17T10:00:13.686Z,80.03
2017-11-17T10:02:42.004Z,102.10
2017-11-17T10:05:10.339Z,94.10
2017-11-17T10:07:38.690Z,87.17
2017-11-17T10:10:07.814Z,93.70
2017-11-17T10:12:36.152Z,98.70
2017-11-17T10:15:04.643Z,87.73
2017-11-17T10:17:33.025Z,79.93
2017-11-17T10:20:01.352Z,100.37
2017-11-17T10:22:30.387Z,98.10
2017-11-17T10:24:58.702Z,90.60
2017-11-17T10:27:27.055Z,72.13
2017-11-17T10:29:55.380Z,84.53
2017-11-17T10:32:23.708Z,88.70
2017-11-17T10:34:52.099Z,79.90
2017-11-17T10:37:20.401Z,92.87
2017-11-17T10:39:48.768Z,77.10
2017-11-17T10:42:17.102Z,85.27
2017-11-17T10:44:45.456Z,78.83
2017-11-17T10:47:13.836Z,89.33
2017-11-17T10:49:42.159Z,92.70
2017-11-17T10:52:10.487Z,82.67
2017-11-17T10:54:39.188Z,73.17
2017-11-17T10:57:08.329Z,81.03
2017-11-17T11:02:48.041Z,79.57
2017-11-17T11:05:16.490Z,98.17
2017-11-17T11:07:44.798Z,80.53
2017-11-17T11:10:13.438Z,76.37
2017-11-17T11:12:41.810Z,76.23
2017-11-17T11:15:10.501Z,80.00
2017-11-17T11:17:39.521Z,72.73
2017-11-17T11:20:07.852Z,79.60
2017-11-17T11:22:41.184Z,86.93
2017-11-17T11:25:09.526Z,77.70
2017-11-17T11:27:37.927Z,70.80
2017-11-17T11:30:06.262Z,79.60
2017-11-17T11:32:34.892Z,81.30
2017-11-17T11:35:03.242Z,79.27
2017-11-17T11:37:31.658Z,72.93
2017-11-17T11:40:00.047Z,70.93
2017-11-17T11:42:28.387Z,68.87
2017-11-17T11:44:56.941Z,86.23
2017-11-17T11:47:25.356Z,83.00
2017-11-17T11:49:53.698Z,77.70
2017-11-17T11:52:22.054Z,75.50
2017-11-17T11:54:50.734Z,78.43
2017-11-17T11:57:19.077Z,91.30
2017-11-17T11:59:47.422Z,74.73
2017-11-17T12:02:15.783Z,78.00
2017-11-17T12:04:44.078Z,93.37
2017-11-17T12:07:12.442Z,80.80
2017-11-17T12:09:40.780Z,82.50
2017-11-17T12:12:09.089Z,82.17
2017-11-17T12:14:37.438Z,90.40
2017-11-17T12:17:05.753Z,78.70
2017-11-17T12:19:36.213Z,74.77
2017-11-17T12:22:04.651Z,79.20
2017-11-17T12:24:32.987Z,82.13
2017-11-17T12:27:01.287Z,87.93
2017-11-17T12:29:29.624Z,87.13
2017-11-17T12:31:58.001Z,79.90
2017-11-17T12:34:26.342Z,79.33
2017-11-17T12:36:54.901Z,73.57
2017-11-17T12:39:23.219Z,68.87
2017-11-17T12:41:51.548Z,66.60
2017-11-17T12:44:19.858Z,72.83
2017-11-17T12:46:48.209Z,73.73
2017-11-17T12:49:16.554Z,78.10
2017-11-17T12:51:44.895Z,75.83
2017-11-17T12:54:13.313Z,76.03
2017-11-17T12:56:41.691Z,74.17
2017-11-17T12:59:10.027Z,81.93
2017-11-17T13:01:38.414Z,74.23
2017-11-17T13:04:06.773Z,70.57
2017-11-17T13:06:35.305Z,81.10
2017-11-17T13:09:03.652Z,80.17
2017-11-17T13:11:32.009Z,73.80
2017-11-17T13:14:00.320Z,70.80
2017-11-17T13:16:28.669Z,94.83
2017-11-17T13:18:57.025Z,80.73
2017-11-17T13:21:25.368Z,84.23
2017-11-17T13:23:53.689Z,70.10
2017-11-17T13:26:22.061Z,71.77
2017-11-17T13:28:50.385Z,81.57
2017-11-17T13:31:18.741Z,66.17
2017-11-17T13:33:47.134Z,67.50
2017-11-17T13:36:15.479Z,89.77
2017-11-17T13:38:43.869Z,75.80
2017-11-17T13:41:12.212Z,82.37
2017-11-17T13:43:40.537Z,98.07
2017-11-17T13:46:08.953Z,64.20
2017-11-17T13:48:38.357Z,71.60
2017-11-17T13:51:06.827Z,72.50
2017-11-17T13:53:35.213Z,75.83
2017-11-17T13:56:03.558Z,79.33
2017-11-17T13:58:31.960Z,82.80
2017-11-17T14:01:00.624Z,80.43
2017-11-17T14:03:29.027Z,75.17
2017-11-17T14:05:57.388Z,64.60
2017-11-17T14:08:25.770Z,80.03
2017-11-17T14:10:54.093Z,74.93
2017-11-17T14:13:22.455Z,70.57
2017-11-17T14:15:50.771Z,95.20
2017-11-17T14:18:19.236Z,68.00
2017-11-17T14:20:47.631Z,78.90
2017-11-17T14:23:15.989Z,74.43
2017-11-17T14:25:44.420Z,62.90
2017-11-17T14:30:47.294Z,72.73
2017-11-17T14:33:15.717Z,81.70
2017-11-17T14:35:44.077Z,70.73
2017-11-17T14:38:12.727Z,65.00
2017-11-17T14:40:41.113Z,86.83
2017-11-17T14:43:10.299Z,80.23
2017-11-17T14:45:38.642Z,75.27
2017-11-17T14:48:06.945Z,77.53
2017-11-17T14:50:35.284Z,85.93
2017-11-17T14:53:03.670Z,73.83
2017-11-17T14:55:32.026Z,86.00
2017-11-17T14:58:03.763Z,79.13
2017-11-17T15:00:32.151Z,85.70
2017-11-17T15:03:02.333Z,81.67
2017-11-17T15:05:30.687Z,78.37
2017-11-17T15:07:59.019Z,83.20
2017-11-17T15:10:27.466Z,82.87
2017-11-17T15:12:55.782Z,84.07
2017-11-17T15:15:24.118Z,76.07
2017-11-17T15:17:53.190Z,69.17
2017-11-17T15:20:21.600Z,88.40
2017-11-17T15:22:49.982Z,75.23
2017-11-17T15:25:18.343Z,80.40
2017-11-17T15:27:46.741Z,68.30
2017-11-17T15:30:15.159Z,88.17
2017-11-17T15:32:44.009Z,79.20
2017-11-17T15:35:12.530Z,90.27
2017-11-17T15:37:40.879Z,83.33
2017-11-17T15:40:09.297Z,87.77
2017-11-17T15:42:37.781Z,76.63
2017-11-17T15:45:06.159Z,80.00
2017-11-17T15:47:34.530Z,74.20
2017-11-17T15:50:03.168Z,84.83
2017-11-17T15:52:31.547Z,74.30
2017-11-17T15:54:59.962Z,73.37
2017-11-17T15:57:29.544Z,75.13
2017-11-17T15:59:57.968Z,86.10
2017-11-17T16:02:26.429Z,84.67
2017-11-17T16:04:54.818Z,69.33
2017-11-17T16:07:24.050Z,70.27
2017-11-17T16:09:52.475Z,84.33
2017-11-17T16:12:20.884Z,98.73
2017-11-17T16:14:49.214Z,95.77
2017-11-17T16:17:17.615Z,94.30
2017-11-17T16:19:45.955Z,84.63
2017-11-17T16:22:14.338Z,103.50
2017-11-17T16:24:42.741Z,88.03
2017-11-17T16:27:11.054Z,91.60
2017-11-17T16:29:39.639Z,93.03
2017-11-17T16:32:07.976Z,86.53
2017-11-17T16:34:36.442Z,82.40
2017-11-17T16:37:04.822Z,87.00
2017-11-17T16:39:33.160Z,81.23
2017-11-17T16:42:01.575Z,120.83
2017-11-17T16:44:30.123Z,91.60
2017-11-17T16:46:58.523Z,89.23
2017-11-17T16:49:26.826Z,91.80
2017-11-17T16:51:55.252Z,89.97
2017-11-17T16:54:23.650Z,85.07
2017-11-17T16:56:51.981Z,76.87
2017-11-17T16:59:20.316Z,92.40
2017-11-17T17:01:48.641Z,78.00
2017-11-17T17:04:17.112Z,82.53
2017-11-17T17:06:45.485Z,87.77
2017-11-17T17:09:13.945Z,87.13
2017-11-17T17:11:42.290Z,88.57
2017-11-17T17:14:10.607Z,107.40
2017-11-17T17:16:38.944Z,96.97
2017-11-17T17:19:07.279Z,95.13
2017-11-17T17:21:35.625Z,92.80
2017-11-17T17:24:04.093Z,105.80
2017-11-17T17:26:32.489Z,98.70
2017-11-17T17:29:00.856Z,86.70
2017-11-17T17:31:29.224Z,122.77
2017-11-17T17:33:57.526Z,91.37
2017-11-17T17:36:25.877Z,95.10
2017-11-17T17:38:54.226Z,107.70
2017-11-17T17:41:22.567Z,107.83
2017-11-17T17:43:50.877Z,87.70
2017-11-17T17:46:19.221Z,96.53
2017-11-17T17:48:47.541Z,83.13
2017-11-17T17:51:15.865Z,81.00
2017-11-17T17:53:44.991Z,71.43
2017-11-17T17:56:13.337Z,70.67
2017-11-17T17:58:41.683Z,75.13
2017-11-17T18:01:10.015Z,66.20
2017-11-17T18:03:38.332Z,81.93
2017-11-17T18:06:06.637Z,98.87
2017-11-17T18:08:34.970Z,63.13
2017-11-17T18:11:03.298Z,77.73
2017-11-17T18:13:31.663Z,84.00
2017-11-17T18:16:00.030Z,67.77
2017-11-17T18:18:28.667Z,70.83
2017-11-17T18:20:56.988Z,69.23
2017-11-17T18:23:25.361Z,68.87
2017-11-17T18:25:53.713Z,62.07
2017-11-17T18:28:22.046Z,61.30
2017-11-17T18:30:50.441Z,74.43
2017-11-17T18:33:18.711Z,73.97
2017-11-17T18:35:47.081Z,77.00
2017-11-17T18:38:16.260Z,64.30
2017-11-17T18:40:44.634Z,58.47
2017-11-17T18:43:13.010Z,65.80
2017-11-17T18:45:41.292Z,63.93
2017-11-17T18:48:09.609Z,60.57
2017-11-17T18:50:38.107Z,61.23
2017-11-17T18:53:06.411Z,69.63
2017-11-17T18:55:34.725Z,59.13
2017-11-17T18:58:03.068Z,66.90
2017-11-17T19:00:31.441Z,64.27
2017-11-17T19:02:59.769Z,70.13
2017-11-17T19:05:28.128Z,62.10
2017-11-17T19:07:56.514Z,58.57
2017-11-17T19:10:24.836Z,82.27
2017-11-17T19:12:53.182Z,57.07
2017-11-17T19:15:21.492Z,65.10
2017-11-17T19:17:49.802Z,79.43
2017-11-17T19:20:19.458Z,68.30
2017-11-17T19:22:47.783Z,79.30
2017-11-17T19:25:16.100Z,78.00
2017-11-17T19:27:44.448Z,69.07
2017-11-17T19:30:13.039Z,87.60
2017-11-17T19:32:41.325Z,79.97
2017-11-17T19:35:09.754Z,75.27
2017-11-17T19:37:38.055Z,61.17
2017-11-17T19:40:06.385Z,66.90
2017-11-17T19:42:34.731Z,70.40
2017-11-17T19:45:03.082Z,70.67
2017-11-17T19:47:31.394Z,68.23
2017-11-17T19:49:59.698Z,73.23
2017-11-17T19:52:28.024Z,78.80
2017-11-17T19:54:56.443Z,69.07
2017-11-17T19:57:24.760Z,65.30
2017-11-17T19:59:53.099Z,61.60
2017-11-17T20:02:21.455Z,73.60
2017-11-17T20:04:49.768Z,78.50
2017-11-17T20:07:18.094Z,70.73
2017-11-17T20:09:47.172Z,71.20
2017-11-17T20:12:15.484Z,70.10
2017-11-17T20:14:43.791Z,63.27
2017-11-17T20:17:12.119Z,66.47
2017-11-17T20:19:40.426Z,73.57
2017-11-17T20:22:08.910Z,73.23
2017-11-17T20:24:37.238Z,61.83
2017-11-17T20:27:05.603Z,62.87
2017-11-17T20:29:33.933Z,66.40
2017-11-17T20:32:02.244Z,73.67
2017-11-17T20:34:30.577Z,75.50
2017-11-17T20:36:58.921Z,70.57
2017-11-17T20:39:29.682Z,56.13
2017-11-17T20:41:58.095Z,60.20
2017-11-17T20:44:30.261Z,61.67
2017-11-17T20:46:58.593Z,69.40
2017-11-17T20:49:26.928Z,69.30
2017-11-17T20:51:55.273Z,71.23
2017-11-17T20:54:23.654Z,58.73
2017-11-17T20:56:52.079Z,55.83
2017-11-17T20:59:20.374Z,60.87
2017-11-17T21:01:48.752Z,80.47
2017-11-17T21:04:17.187Z,64.87
2017-11-17T21:06:45.579Z,57.93
2017-11-17T21:09:13.909Z,63.97
2017-11-17T21:11:42.286Z,67.27
2017-11-17T21:14:10.695Z,59.37
2017-11-17T21:16:39.014Z,70.23
2017-11-17T21:19:07.346Z,64.60
2017-11-17T21:21:35.693Z,61.83
2017-11-17T21:24:04.003Z,64.33
2017-11-17T21:26:32.326Z,66.47
2017-11-17T21:29:00.669Z,78.00
2017-11-17T21:31:28.991Z,70.60
2017-11-17T21:33:57.396Z,67.73
2017-11-17T21:36:25.744Z,72.30
2017-11-17T21:38:54.238Z,75.83
2017-11-17T21:41:22.627Z,76.57
2017-11-17T21:43:50.985Z,73.07
2017-11-17T21:46:20.286Z,68.87
2017-11-17T21:48:52.088Z,75.80
2017-11-17T21:51:20.404Z,72.50
2017-11-17T21:53:48.735Z,67.63
2017-11-17T21:56:17.066Z,78.27
2017-11-17T21:58:45.400Z,70.17
2017-11-17T22:01:13.711Z,86.33
2017-11-17T22:03:42.050Z,73.17
2017-11-17T22:06:10.397Z,83.63
2017-11-17T22:08:38.761Z,71.67
2017-11-17T22:11:07.230Z,81.07
2017-11-17T22:13:35.640Z,81.17
2017-11-17T22:16:03.942Z,82.07
2017-11-17T22:18:32.291Z,87.70
2017-11-17T22:21:00.624Z,70.77
2017-11-17T22:23:28.947Z,85.63
2017-11-17T22:25:57.287Z,89.50
2017-11-17T22:28:25.689Z,68.40
2017-11-17T22:30:54.047Z,64.50
2017-11-17T22:33:22.433Z,73.07
2017-11-17T22:35:50.794Z,81.03
2017-11-17T22:38:19.551Z,82.00
2017-11-17T22:40:47.871Z,77.70
2017-11-17T22:43:16.313Z,79.87
2017-11-17T22:45:44.625Z,77.50
2017-11-17T22:48:12.966Z,85.47
2017-11-17T22:50:41.332Z,75.37
2017-11-17T22:53:09.807Z,79.63
2017-11-17T22:55:38.112Z,81.07
2017-11-17T22:58:06.457Z,65.00
2017-11-17T23:00:34.769Z,80.47
2017-11-17T23:03:03.125Z,66.07
2017-11-17T23:05:31.455Z,77.03
2017-11-17T23:07:59.773Z,63.50
2017-11-17T23:10:28.298Z,66.00
2017-11-17T23:12:56.615Z,70.57
2017-11-17T23:15:24.934Z,71.90
2017-11-17T23:17:53.276Z,66.60
2017-11-17T23:20:21.577Z,68.03
2017-11-17T23:22:49.999Z,60.47
2017-11-17T23:25:18.310Z,62.67
2017-11-17T23:27:46.695Z,65.37
2017-11-17T23:30:15.060Z,72.73
2017-11-17T23:32:43.387Z,63.73
2017-11-17T23:35:11.714Z,60.33
2017-11-17T23:37:40.101Z,79.43
2017-11-17T23:40:08.424Z,77.37
2017-11-17T23:42:36.746Z,76.93
2017-11-17T23:45:05.118Z,74.87
2017-11-17T23:47:33.434Z,61.60
2017-11-17T23:50:01.810Z,69.13
2017-11-17T23:52:30.112Z,71.23
2017-11-17T23:54:58.434Z,62.43
2017-11-17T23:57:26.774Z,69.07
2017-11-17T23:59:55.152Z,67.63
